Terminal Aerodrome Forecast
Issued by NWS

Home | Current Version | Previous Version | Text Only | Print | Product List | Glossary On
Versions: 1 2 3 4 5 6 7 8 9 10 11 12 13 14 15 16 17 18 19 20 21 22 23 24 25 26
125
FTUS43 KGRB 201634 AAC
TAFMTW
TAF AMD
KMTW 201634Z 2017/2112 04006KT 1 1/2SM -RA BR OVC003
      TEMPO 2017/2019 1/2SM FG OVC002
     FM201900 08004KT 2SM BR OVC003
     FM210300 00000KT 1SM -DZ BR OVC003
     FM210700 VRB03KT 1/2SM -DZ FG OVC002=

USA.gov is the U.S. government's official web portal to all federal, state and local government web resources and services.